Time;durP1;ratioP1;P1;durP2;ratioP2;P2;SDS_P1;SDS_P2;PMS_P1;PMS_P2;Temp;Humidity;BMP_temperature;BMP_pressure;BME280_temperature;BME280_humidity;BME280_pressure;Samples;Min_cycle;Max_cycle;Signal;HPM_P1;HPM_P2
2023/08/12 00:04:52;;;;;;;6.57;4.13;;;;;;;;;;10370954;28;20026;-63
2023/08/12 00:09:53;;;;;;;8.07;4.43;;;;;;;;;;10369447;28;20481;-57
2023/08/12 00:14:53;;;;;;;5.28;3.53;;;;;;;;;;10369718;28;20054;-57
2023/08/12 00:19:54;;;;;;;5.60;4.32;;;;;;;;;;10369755;28;20021;-56
2023/08/12 00:24:54;;;;;;;5.30;3.80;;;;;;;;;;10369682;28;20040;-57
2023/08/12 00:29:55;;;;;;;3.70;3.30;;;;;;;;;;10370510;28;20029;-57
2023/08/12 00:34:56;;;;;;;6.03;4.32;;;;;;;;;;10369193;28;20036;-58
2023/08/12 00:39:56;;;;;;;5.78;3.90;;;;;;;;;;10368997;28;20046;-69
2023/08/12 00:44:58;;;;;;;7.15;3.75;;;;;;;;;;10368829;28;20386;-58
2023/08/12 00:49:59;;;;;;;5.22;3.40;;;;;;;;;;10384086;28;20037;-60
2023/08/12 00:55:00;;;;;;;10.85;4.25;;;;;;;;;;10369271;28;20034;-58
2023/08/12 01:00:03;;;;;;;4.82;4.28;;;;;;;;;;10369042;28;20119;-59
2023/08/12 01:05:05;;;;;;;6.53;4.43;;;;;;;;;;10368881;28;20057;-58
2023/08/12 01:10:06;;;;;;;7.88;4.20;;;;;;;;;;10367974;28;20040;-58
2023/08/12 01:15:24;;;;;;;6.72;3.97;;;;;;;;;;10368558;28;20064;-58
2023/08/12 01:20:26;;;;;;;5.57;3.90;;;;;;;;;;10367133;28;20048;-58
2023/08/12 01:25:26;;;;;;;4.97;3.47;;;;;;;;;;10367827;28;20034;-59
2023/08/12 01:30:27;;;;;;;4.53;3.60;;;;;;;;;;10367920;28;20033;-59
2023/08/12 01:35:45;;;;;;;5.93;4.50;;;;;;;;;;10366815;28;20022;-62
2023/08/12 01:40:46;;;;;;;7.70;4.10;;;;;;;;;;10367050;28;20026;-59
2023/08/12 01:45:47;;;;;;;6.60;3.85;;;;;;;;;;10367449;28;20058;-59
2023/08/12 01:50:48;;;;;;;7.25;3.55;;;;;;;;;;10366663;28;20112;-67
2023/08/12 01:55:50;;;;;;;5.70;4.22;;;;;;;;;;10367748;28;20497;-60
2023/08/12 02:00:51;;;;;;;4.80;4.15;;;;;;;;;;10367325;28;20370;-59
2023/08/12 02:05:52;;;;;;;5.38;3.85;;;;;;;;;;10367109;28;20030;-59
2023/08/12 02:10:53;;;;;;;6.07;4.18;;;;;;;;;;10367631;28;20033;-66
2023/08/12 02:15:53;;;;;;;7.38;4.15;;;;;;;;;;10367377;28;20034;-64
2023/08/12 02:20:54;;;;;;;11.00;4.47;;;;;;;;;;10368003;28;20087;-66
2023/08/12 02:25:54;;;;;;;8.02;4.20;;;;;;;;;;10366793;28;20358;-62
2023/08/12 02:30:55;;;;;;;7.43;5.03;;;;;;;;;;10369338;28;20417;-55
2023/08/12 02:35:55;;;;;;;5.57;4.68;;;;;;;;;;10373760;28;20042;-59
2023/08/12 02:40:56;;;;;;;5.32;4.80;;;;;;;;;;10374438;28;20045;-60
2023/08/12 02:45:56;;;;;;;6.43;4.53;;;;;;;;;;10373608;28;20046;-58
2023/08/12 02:50:57;;;;;;;5.90;4.18;;;;;;;;;;10373695;28;20033;-58
2023/08/12 02:55:58;;;;;;;9.23;5.03;;;;;;;;;;10373677;28;20057;-59
2023/08/12 03:00:58;;;;;;;9.32;4.32;;;;;;;;;;10373174;28;20033;-59
2023/08/12 03:05:59;;;;;;;5.63;3.80;;;;;;;;;;10373333;28;20025;-59
2023/08/12 03:11:03;;;;;;;6.45;4.22;;;;;;;;;;10372683;28;20473;-59
2023/08/12 03:16:04;;;;;;;9.82;4.72;;;;;;;;;;10372788;28;20034;-63
2023/08/12 03:21:09;;;;;;;5.03;4.07;;;;;;;;;;10372881;28;20365;-59
2023/08/12 03:26:09;;;;;;;5.72;4.50;;;;;;;;;;10372006;28;20038;-62
2023/08/12 03:31:10;;;;;;;8.63;4.78;;;;;;;;;;10371953;28;20109;-58
2023/08/12 03:36:10;;;;;;;6.97;4.63;;;;;;;;;;10371359;28;20042;-62
2023/08/12 03:41:11;;;;;;;6.40;4.15;;;;;;;;;;10370808;28;20034;-58
2023/08/12 03:46:12;;;;;;;8.50;4.55;;;;;;;;;;10370913;28;20033;-60
2023/08/12 03:51:12;;;;;;;7.40;4.72;;;;;;;;;;10372264;28;20080;-65
2023/08/12 03:56:16;;;;;;;5.53;4.57;;;;;;;;;;10370874;28;20181;-63
2023/08/12 04:01:16;;;;;;;7.93;4.70;;;;;;;;;;10371290;28;20041;-57
2023/08/12 04:06:17;;;;;;;5.15;4.00;;;;;;;;;;10370964;28;20478;-59
2023/08/12 04:11:18;;;;;;;9.73;4.65;;;;;;;;;;10370553;28;20117;-58
2023/08/12 04:16:19;;;;;;;8.65;4.55;;;;;;;;;;10370120;28;20029;-59
2023/08/12 04:21:20;;;;;;;7.35;5.03;;;;;;;;;;10370002;28;20030;-59
2023/08/12 04:26:20;;;;;;;6.82;4.97;;;;;;;;;;10369745;28;20056;-58
2023/08/12 04:31:21;;;;;;;7.93;5.53;;;;;;;;;;10369616;28;20032;-60
2023/08/12 04:36:21;;;;;;;10.23;5.22;;;;;;;;;;10369650;28;20097;-61
2023/08/12 04:41:23;;;;;;;5.90;5.05;;;;;;;;;;10369782;28;20026;-60
2023/08/12 04:46:24;;;;;;;8.68;5.70;;;;;;;;;;10369564;28;20053;-59
2023/08/12 04:51:25;;;;;;;7.88;5.30;;;;;;;;;;10368965;28;20501;-59
2023/08/12 04:56:29;;;;;;;7.10;5.40;;;;;;;;;;10368893;28;20037;-58
2023/08/12 05:01:29;;;;;;;8.20;5.47;;;;;;;;;;10369120;28;20156;-63
2023/08/12 05:06:30;;;;;;;6.50;5.72;;;;;;;;;;10368490;28;20481;-59
2023/08/12 05:11:30;;;;;;;10.07;5.82;;;;;;;;;;10368423;28;20385;-59
2023/08/12 05:16:31;;;;;;;7.47;5.55;;;;;;;;;;10368025;28;20479;-59
2023/08/12 05:21:31;;;;;;;12.98;5.35;;;;;;;;;;10368727;28;20378;-59
2023/08/12 05:45:19;;;;;;;8.27;5.47;;;;;;;;;;6113330;28;20041;-65
2023/08/12 05:50:20;;;;;;;7.15;4.63;;;;;;;;;;10367887;28;20038;-65
2023/08/12 05:55:20;;;;;;;4.70;4.30;;;;;;;;;;10367858;28;20054;-70
2023/08/12 06:00:21;;;;;;;11.85;4.93;;;;;;;;;;10367225;28;20034;-60
2023/08/12 06:05:57;;;;;;;7.18;4.70;;;;;;;;;;10367968;28;20116;-54
2023/08/12 06:10:57;;;;;;;6.80;5.40;;;;;;;;;;10288130;28;20078;-58
2023/08/12 06:15:58;;;;;;;11.10;5.95;;;;;;;;;;10272057;28;20093;-58
2023/08/12 06:21:10;;;;;;;7.25;5.68;;;;;;;;;;10287974;28;20038;-58
2023/08/12 06:26:11;;;;;;;10.23;5.78;;;;;;;;;;10287751;28;20118;-58
2023/08/12 06:31:11;;;;;;;9.82;4.78;;;;;;;;;;10287650;28;20038;-62
2023/08/12 06:36:12;;;;;;;9.90;5.43;;;;;;;;;;10287163;28;20062;-59
2023/08/12 06:41:12;;;;;;;9.75;4.40;;;;;;;;;;10287256;28;20097;-59
2023/08/12 06:46:13;;;;;;;32.42;5.43;;;;;;;;;;10321150;28;20046;-58
2023/08/12 06:51:14;;;;;;;7.05;4.85;;;;;;;;;;10373077;28;20076;-56
2023/08/12 06:56:14;;;;;;;9.02;4.80;;;;;;;;;;10372796;28;20030;-57
2023/08/12 07:01:15;;;;;;;8.40;4.65;;;;;;;;;;10372961;28;20033;-58
2023/08/12 07:06:15;;;;;;;6.63;4.68;;;;;;;;;;10372445;28;20022;-60
2023/08/12 07:11:16;;;;;;;6.72;4.90;;;;;;;;;;10372051;28;20057;-58
2023/08/12 07:16:17;;;;;;;8.00;4.50;;;;;;;;;;10370592;28;20033;-58
2023/08/12 07:21:17;;;;;;;8.00;4.45;;;;;;;;;;10371474;28;20041;-60
2023/08/12 07:26:18;;;;;;;9.18;5.45;;;;;;;;;;10372284;28;20062;-59
2023/08/12 07:31:18;;;;;;;11.75;5.13;;;;;;;;;;10371959;28;20022;-59
2023/08/12 07:36:19;;;;;;;6.13;4.22;;;;;;;;;;10370198;28;20033;-60
2023/08/12 07:41:20;;;;;;;5.32;3.78;;;;;;;;;;10370824;28;20111;-61
2023/08/12 07:46:20;;;;;;;6.38;4.38;;;;;;;;;;10370226;28;20050;-60
2023/08/12 07:51:21;;;;;;;7.85;4.07;;;;;;;;;;10371270;28;20029;-60
2023/08/12 07:56:21;;;;;;;5.53;3.95;;;;;;;;;;10371092;28;20033;-60
2023/08/12 08:01:22;;;;;;;7.28;4.10;;;;;;;;;;10371338;28;20034;-60
2023/08/12 08:06:27;;;;;;;4.15;3.75;;;;;;;;;;10370982;28;20030;-60
2023/08/12 08:11:28;;;;;;;7.53;3.58;;;;;;;;;;10371471;28;20304;-60
2023/08/12 08:16:28;;;;;;;6.28;4.32;;;;;;;;;;10370597;28;20265;-60
2023/08/12 08:21:29;;;;;;;5.20;3.90;;;;;;;;;;10370434;28;20477;-60
2023/08/12 08:26:29;;;;;;;4.90;3.75;;;;;;;;;;10370092;28;20084;-60
2023/08/12 08:31:30;;;;;;;7.25;4.00;;;;;;;;;;10369492;28;20014;-60
2023/08/12 08:36:31;;;;;;;6.82;4.00;;;;;;;;;;10370402;28;20029;-60
2023/08/12 08:41:37;;;;;;;5.32;3.60;;;;;;;;;;10369854;28;20481;-60
2023/08/12 08:46:37;;;;;;;5.93;3.35;;;;;;;;;;10368215;28;20096;-60
2023/08/12 08:51:38;;;;;;;4.22;3.70;;;;;;;;;;10369828;28;20037;-60
2023/08/12 08:56:39;;;;;;;4.03;3.47;;;;;;;;;;10367924;28;20033;-60
2023/08/12 09:01:40;;;;;;;5.65;4.05;;;;;;;;;;10368077;28;20056;-60
2023/08/12 09:06:53;;;;;;;4.03;3.45;;;;;;;;;;10368879;28;20385;-60
2023/08/12 09:11:55;;;;;;;4.07;3.42;;;;;;;;;;10368121;28;20261;-60
2023/08/12 09:16:57;;;;;;;3.97;3.25;;;;;;;;;;10367789;28;20038;-60
2023/08/12 09:21:58;;;;;;;3.97;3.13;;;;;;;;;;10368549;28;20483;-60
2023/08/12 09:26:58;;;;;;;5.07;3.53;;;;;;;;;;10368399;28;20116;-60
2023/08/12 09:32:12;;;;;;;4.38;3.65;;;;;;;;;;10368340;28;20053;-60
2023/08/12 09:37:13;;;;;;;4.18;3.45;;;;;;;;;;10367327;28;20041;-60
2023/08/12 09:42:16;;;;;;;3.85;3.28;;;;;;;;;;10374254;28;20044;-60
2023/08/12 09:47:17;;;;;;;4.60;3.40;;;;;;;;;;10376459;28;20052;-60
2023/08/12 09:52:18;;;;;;;5.97;3.47;;;;;;;;;;10376228;28;20034;-59
2023/08/12 09:57:22;;;;;;;5.00;3.72;;;;;;;;;;10375603;28;20025;-60
2023/08/12 10:02:24;;;;;;;3.50;3.13;;;;;;;;;;10375904;28;20026;-60
2023/08/12 10:07:25;;;;;;;4.32;3.50;;;;;;;;;;10374303;28;20037;-60
2023/08/12 10:12:26;;;;;;;4.07;3.15;;;;;;;;;;10374730;28;20437;-60
2023/08/12 10:17:27;;;;;;;3.78;3.17;;;;;;;;;;10373844;28;20037;-60
2023/08/12 10:22:30;;;;;;;3.80;3.25;;;;;;;;;;10373925;28;20381;-60
2023/08/12 10:27:30;;;;;;;3.92;3.13;;;;;;;;;;10375366;28;20037;-60
2023/08/12 10:32:32;;;;;;;5.05;3.53;;;;;;;;;;10374721;28;20040;-61
2023/08/12 10:37:34;;;;;;;5.25;3.17;;;;;;;;;;10374337;28;20041;-60
2023/08/12 10:42:48;;;;;;;4.00;3.40;;;;;;;;;;10373254;28;20048;-60
2023/08/12 10:48:22;;;;;;;3.78;2.90;;;;;;;;;;10373795;28;20042;-62
2023/08/12 10:53:33;;;;;;;3.40;3.08;;;;;;;;;;10373143;28;20486;-60
2023/08/12 10:58:47;;;;;;;4.38;3.33;;;;;;;;;;10374153;28;20033;-60
2023/08/12 11:03:58;;;;;;;5.70;2.83;;;;;;;;;;10373428;28;20032;-60
2023/08/12 11:08:59;;;;;;;4.55;3.55;;;;;;;;;;10373259;28;20153;-60
2023/08/12 11:13:59;;;;;;;6.45;3.15;;;;;;;;;;10374065;28;20498;-60
2023/08/12 11:19:00;;;;;;;4.38;2.97;;;;;;;;;;10372862;28;20065;-60
2023/08/12 11:24:02;;;;;;;3.80;3.25;;;;;;;;;;10372669;28;20030;-60
2023/08/12 11:29:09;;;;;;;4.15;2.90;;;;;;;;;;10373184;28;20076;-60
2023/08/12 11:34:11;;;;;;;3.35;2.97;;;;;;;;;;10372409;28;20022;-60
2023/08/12 11:39:11;;;;;;;3.40;3.10;;;;;;;;;;10372014;28;20030;-60
2023/08/12 11:44:15;;;;;;;4.13;2.90;;;;;;;;;;10370920;28;20033;-60
2023/08/12 11:49:16;;;;;;;4.53;3.25;;;;;;;;;;10372433;28;20033;-61
2023/08/12 11:54:18;;;;;;;3.83;3.25;;;;;;;;;;10371463;28;20041;-60
2023/08/12 11:59:21;;;;;;;3.47;2.90;;;;;;;;;;10370201;28;20041;-60
2023/08/12 12:04:23;;;;;;;4.82;2.90;;;;;;;;;;10370614;28;20037;-60
2023/08/12 12:09:25;;;;;;;3.38;3.03;;;;;;;;;;10371495;28;20030;-60
2023/08/12 12:14:26;;;;;;;3.22;2.78;;;;;;;;;;10371324;28;20026;-60
2023/08/12 12:19:27;;;;;;;3.25;2.65;;;;;;;;;;10371142;28;20025;-60
2023/08/12 12:24:30;;;;;;;3.20;2.90;;;;;;;;;;10370952;28;20033;-60
2023/08/12 12:29:43;;;;;;;3.83;3.08;;;;;;;;;;10370944;28;20216;-60
2023/08/12 12:34:43;;;;;;;3.00;2.70;;;;;;;;;;10370009;28;20100;-60
2023/08/12 12:39:44;;;;;;;3.42;3.00;;;;;;;;;;10369761;28;20083;-60
2023/08/12 12:44:44;;;;;;;3.22;2.60;;;;;;;;;;10367733;28;20042;-60
2023/08/12 12:49:45;;;;;;;2.95;2.70;;;;;;;;;;10369622;28;20058;-60
2023/08/12 12:54:46;;;;;;;2.92;2.55;;;;;;;;;;10369370;28;20026;-60
2023/08/12 12:59:47;;;;;;;3.42;2.65;;;;;;;;;;10369283;28;20022;-60
2023/08/12 13:04:49;;;;;;;3.33;2.63;;;;;;;;;;10369559;28;20030;-60
2023/08/12 13:09:50;;;;;;;3.45;2.40;;;;;;;;;;10368943;28;20466;-60
2023/08/12 13:14:50;;;;;;;2.85;2.63;;;;;;;;;;10368460;28;20030;-60
2023/08/12 13:19:51;;;;;;;2.90;2.60;;;;;;;;;;10368539;28;20040;-60
2023/08/12 13:24:51;;;;;;;2.78;2.55;;;;;;;;;;10368563;28;20284;-60
2023/08/12 13:29:58;;;;;;;3.42;2.53;;;;;;;;;;10368515;28;20033;-60
2023/08/12 13:34:58;;;;;;;4.82;2.90;;;;;;;;;;10368416;28;20056;-60
2023/08/12 13:40:03;;;;;;;2.90;2.70;;;;;;;;;;10368732;28;20065;-60
2023/08/12 13:45:05;;;;;;;3.13;2.55;;;;;;;;;;10368412;28;20054;-60
2023/08/12 13:50:17;;;;;;;2.78;2.53;;;;;;;;;;10368041;28;20033;-60
2023/08/12 13:55:17;;;;;;;3.30;2.50;;;;;;;;;;10367716;28;20370;-60
2023/08/12 14:00:18;;;;;;;3.72;2.58;;;;;;;;;;10367755;28;20036;-60
2023/08/12 14:05:19;;;;;;;3.15;2.83;;;;;;;;;;10367687;28;20072;-60
2023/08/12 14:10:20;;;;;;;3.22;2.90;;;;;;;;;;10368088;28;20033;-60
2023/08/12 14:15:21;;;;;;;2.72;2.50;;;;;;;;;;10367497;28;20022;-60
2023/08/12 14:20:23;;;;;;;2.70;2.50;;;;;;;;;;10367305;28;20033;-60
2023/08/12 14:25:23;;;;;;;2.80;2.50;;;;;;;;;;10367275;28;20293;-60
2023/08/12 14:30:30;;;;;;;4.03;2.80;;;;;;;;;;10374700;28;20245;-60
2023/08/12 14:35:31;;;;;;;3.10;2.35;;;;;;;;;;10374638;28;20030;-60
2023/08/12 14:40:31;;;;;;;2.92;2.60;;;;;;;;;;10374300;28;20030;-60
2023/08/12 14:45:32;;;;;;;4.95;2.22;;;;;;;;;;10374347;28;20076;-60
2023/08/12 14:50:33;;;;;;;3.38;2.42;;;;;;;;;;10374647;28;20050;-60
2023/08/12 14:55:33;;;;;;;2.40;2.20;;;;;;;;;;10374297;28;20025;-60
2023/08/12 15:00:37;;;;;;;2.60;2.40;;;;;;;;;;10373700;28;20030;-60
2023/08/12 15:05:43;;;;;;;2.70;2.50;;;;;;;;;;10373922;28;20041;-60
2023/08/12 15:10:44;;;;;;;3.00;2.65;;;;;;;;;;10372183;28;20025;-60
2023/08/12 15:15:49;;;;;;;3.13;2.83;;;;;;;;;;10373050;28;20033;-60
2023/08/12 15:20:49;;;;;;;2.70;2.50;;;;;;;;;;10372818;28;20026;-59
2023/08/12 15:25:50;;;;;;;2.58;2.22;;;;;;;;;;10373138;28;20034;-60
2023/08/12 15:30:50;;;;;;;3.28;2.30;;;;;;;;;;10373520;28;20257;-60
2023/08/12 15:35:51;;;;;;;2.38;2.17;;;;;;;;;;10372271;28;20493;-60
2023/08/12 15:40:52;;;;;;;3.08;2.60;;;;;;;;;;10372297;28;20026;-60
2023/08/12 15:45:52;;;;;;;4.15;2.75;;;;;;;;;;10370621;28;20065;-60
2023/08/12 15:50:53;;;;;;;2.83;2.42;;;;;;;;;;10372137;28;20053;-60
2023/08/12 15:56:12;;;;;;;2.40;2.20;;;;;;;;;;10372001;28;20029;-60
2023/08/12 16:01:13;;;;;;;2.63;2.42;;;;;;;;;;10371270;28;20042;-60
2023/08/12 16:06:14;;;;;;;2.78;2.58;;;;;;;;;;10371687;28;20030;-59
2023/08/12 16:11:14;;;;;;;3.03;2.80;;;;;;;;;;10370967;28;20033;-60
2023/08/12 16:16:15;;;;;;;2.60;2.40;;;;;;;;;;10371268;28;20030;-60
2023/08/12 16:21:15;;;;;;;2.58;2.38;;;;;;;;;;10370511;28;20436;-60
2023/08/12 16:26:16;;;;;;;2.55;2.35;;;;;;;;;;10370402;28;20394;-60
2023/08/12 16:31:17;;;;;;;2.80;2.35;;;;;;;;;;10370589;28;20385;-60
2023/08/12 16:36:17;;;;;;;2.50;2.30;;;;;;;;;;10369958;28;20456;-60
2023/08/12 16:41:18;;;;;;;2.88;2.30;;;;;;;;;;10369740;28;20393;-60
2023/08/12 16:46:18;;;;;;;2.42;2.22;;;;;;;;;;10369797;28;20045;-60
2023/08/12 16:51:19;;;;;;;3.05;2.60;;;;;;;;;;10368932;28;20044;-60
2023/08/12 16:56:19;;;;;;;2.25;2.05;;;;;;;;;;10369121;28;20033;-60
2023/08/12 17:01:35;;;;;;;2.50;2.30;;;;;;;;;;10369606;28;20029;-60
2023/08/12 17:06:35;;;;;;;2.55;2.30;;;;;;;;;;10368871;28;20441;-60
2023/08/12 17:11:36;;;;;;;2.58;2.13;;;;;;;;;;10368890;28;20026;-60
2023/08/12 17:16:55;;;;;;;3.58;2.47;;;;;;;;;;10368533;28;20030;-60
2023/08/12 17:21:56;;;;;;;2.50;2.30;;;;;;;;;;10369141;28;20029;-60
2023/08/12 17:26:57;;;;;;;2.65;2.33;;;;;;;;;;10368352;28;20038;-60
2023/08/12 17:31:58;;;;;;;2.78;2.50;;;;;;;;;;10368278;28;20393;-60
2023/08/12 17:37:09;;;;;;;2.00;1.90;;;;;;;;;;10367700;28;20176;-60
2023/08/12 17:42:19;;;;;;;2.55;2.35;;;;;;;;;;10368350;28;20034;-60
2023/08/12 17:47:20;;;;;;;2.85;2.10;;;;;;;;;;10367756;28;20117;-60
2023/08/12 17:52:29;;;;;;;2.45;2.25;;;;;;;;;;10366631;28;20041;-60
2023/08/12 17:57:30;;;;;;;2.58;2.10;;;;;;;;;;10368105;28;20034;-60
2023/08/12 18:02:31;;;;;;;2.30;2.10;;;;;;;;;;10371356;28;20022;-60
2023/08/12 18:07:31;;;;;;;2.60;2.25;;;;;;;;;;10376208;28;20493;-60
2023/08/12 18:12:32;;;;;;;3.20;2.60;;;;;;;;;;10375501;28;20076;-60
2023/08/12 18:17:32;;;;;;;2.30;2.10;;;;;;;;;;10375599;28;20037;-60
2023/08/12 18:22:33;;;;;;;2.40;2.20;;;;;;;;;;10375029;28;20038;-60
2023/08/12 18:27:34;;;;;;;2.63;2.42;;;;;;;;;;10375389;28;20072;-60
2023/08/12 18:32:34;;;;;;;2.63;2.42;;;;;;;;;;10374699;28;20033;-60
2023/08/12 18:37:35;;;;;;;2.40;2.20;;;;;;;;;;10374423;28;20046;-60
2023/08/12 18:42:36;;;;;;;2.22;2.03;;;;;;;;;;10374963;28;20041;-60
2023/08/12 18:47:37;;;;;;;2.47;2.13;;;;;;;;;;10373994;28;20120;-60
2023/08/12 18:52:38;;;;;;;2.28;2.10;;;;;;;;;;10373926;28;20265;-60
2023/08/12 18:57:38;;;;;;;2.40;2.20;;;;;;;;;;10373659;28;20417;-60
2023/08/12 19:02:40;;;;;;;2.30;2.10;;;;;;;;;;10373540;28;20025;-60
2023/08/12 19:07:41;;;;;;;2.30;2.10;;;;;;;;;;10373815;28;20025;-60
2023/08/12 19:12:42;;;;;;;2.63;2.42;;;;;;;;;;10373041;28;20030;-60
2023/08/12 19:17:43;;;;;;;2.10;2.00;;;;;;;;;;10373777;28;20033;-60
2023/08/12 19:22:43;;;;;;;2.40;2.20;;;;;;;;;;10372806;28;20493;-60
2023/08/12 19:27:44;;;;;;;2.45;2.25;;;;;;;;;;10373442;28;20022;-60
2023/08/12 19:32:53;;;;;;;2.67;2.47;;;;;;;;;;10372382;28;20272;-60
2023/08/12 19:37:58;;;;;;;2.08;1.98;;;;;;;;;;10372362;28;20038;-60
2023/08/12 19:42:59;;;;;;;2.22;1.92;;;;;;;;;;10372502;28;20033;-60
2023/08/12 19:47:59;;;;;;;2.50;2.30;;;;;;;;;;10371618;28;20497;-60
2023/08/12 19:53:00;;;;;;;2.50;2.30;;;;;;;;;;10371631;28;20030;-60
2023/08/12 19:58:01;;;;;;;2.17;2.00;;;;;;;;;;10371184;28;20030;-60
2023/08/12 20:03:02;;;;;;;2.47;2.28;;;;;;;;;;10371165;28;20508;-60
2023/08/12 20:08:08;;;;;;;2.08;1.98;;;;;;;;;;10370947;28;20032;-60
2023/08/12 20:13:09;;;;;;;4.32;2.15;;;;;;;;;;10371264;28;20037;-60
2023/08/12 20:18:10;;;;;;;2.50;2.30;;;;;;;;;;10371082;28;20030;-60
2023/08/12 20:23:10;;;;;;;2.08;1.92;;;;;;;;;;10369982;28;20030;-60
2023/08/12 20:28:11;;;;;;;2.85;2.25;;;;;;;;;;10370136;28;20025;-60
2023/08/12 20:33:11;;;;;;;2.30;2.10;;;;;;;;;;10370591;28;20026;-60
2023/08/12 20:38:12;;;;;;;2.40;2.20;;;;;;;;;;10369851;28;20026;-60
2023/08/12 20:43:16;;;;;;;2.15;2.05;;;;;;;;;;10370076;28;20038;-59
2023/08/12 20:48:16;;;;;;;2.30;2.00;;;;;;;;;;10369605;28;20046;-60
2023/08/12 20:53:20;;;;;;;2.33;2.13;;;;;;;;;;10369299;28;20030;-60
2023/08/12 20:58:20;;;;;;;2.45;2.00;;;;;;;;;;10369453;28;20037;-60
2023/08/12 21:03:21;;;;;;;2.25;2.03;;;;;;;;;;10369070;28;20484;-60
2023/08/12 21:08:21;;;;;;;2.00;1.90;;;;;;;;;;10368742;28;20076;-60
2023/08/12 21:13:25;;;;;;;2.33;2.13;;;;;;;;;;10369212;28;20037;-59
2023/08/12 21:18:25;;;;;;;2.40;2.20;;;;;;;;;;10368337;28;20038;-60
2023/08/12 21:23:32;;;;;;;2.13;1.90;;;;;;;;;;10368463;28;20025;-60
2023/08/12 21:28:33;;;;;;;1.92;1.83;;;;;;;;;;10368791;28;20104;-60
2023/08/12 21:33:33;;;;;;;2.08;1.92;;;;;;;;;;10368298;28;20037;-60
2023/08/12 21:38:34;;;;;;;2.50;2.30;;;;;;;;;;10367682;28;20026;-60
2023/08/12 21:43:34;;;;;;;1.88;1.77;;;;;;;;;;10367870;28;20037;-60
2023/08/12 21:48:35;;;;;;;2.58;2.28;;;;;;;;;;10367621;28;20037;-59
2023/08/12 21:53:39;;;;;;;1.80;1.70;;;;;;;;;;10368349;28;20022;-60
2023/08/12 21:58:49;;;;;;;1.90;1.80;;;;;;;;;;10367904;28;20033;-60
2023/08/12 22:03:49;;;;;;;2.00;1.90;;;;;;;;;;10367962;28;20026;-60
2023/08/12 22:08:50;;;;;;;2.13;1.92;;;;;;;;;;10367486;28;20428;-60
2023/08/12 22:13:50;;;;;;;2.17;1.98;;;;;;;;;;10367361;28;20429;-60
2023/08/12 22:18:51;;;;;;;2.03;1.90;;;;;;;;;;10367283;28;20401;-60
2023/08/12 22:24:25;;;;;;;2.03;1.83;;;;;;;;;;10367204;28;20022;-60
2023/08/12 22:29:26;;;;;;;2.00;1.90;;;;;;;;;;10367220;28;20489;-60
2023/08/12 22:34:26;;;;;;;1.80;1.70;;;;;;;;;;10367453;28;20021;-60
2023/08/12 22:39:42;;;;;;;2.38;2.17;;;;;;;;;;10366822;28;20034;-60
2023/08/12 22:44:43;;;;;;;1.88;1.77;;;;;;;;;;10367026;28;20022;-60
2023/08/12 22:49:43;;;;;;;2.03;1.92;;;;;;;;;;10371976;28;20037;-60
2023/08/12 22:54:56;;;;;;;2.25;1.90;;;;;;;;;;10374310;28;20158;-60
2023/08/12 23:00:07;;;;;;;2.10;2.00;;;;;;;;;;10388773;28;20091;-60
2023/08/12 23:05:10;;;;;;;1.80;1.70;;;;;;;;;;10373955;28;20032;-60
2023/08/12 23:10:11;;;;;;;2.17;2.00;;;;;;;;;;10373266;28;20081;-60
2023/08/12 23:15:12;;;;;;;1.80;1.70;;;;;;;;;;10372909;28;20061;-60
2023/08/12 23:20:13;;;;;;;2.05;1.90;;;;;;;;;;10372693;28;20428;-60
2023/08/12 23:25:26;;;;;;;1.80;1.70;;;;;;;;;;10373096;28;20092;-61
2023/08/12 23:30:27;;;;;;;2.90;1.80;;;;;;;;;;10372968;28;20026;-60
2023/08/12 23:35:27;;;;;;;3.90;2.10;;;;;;;;;;10372308;28;20026;-60
2023/08/12 23:40:28;;;;;;;1.90;1.80;;;;;;;;;;10372917;28;20048;-60
2023/08/12 23:45:39;;;;;;;2.30;2.10;;;;;;;;;;10371811;28;20462;-60
2023/08/12 23:50:40;;;;;;;1.90;1.80;;;;;;;;;;10370531;28;20030;-60
2023/08/12 23:55:40;;;;;;;2.35;1.90;;;;;;;;;;10371216;28;20037;-60
